Flight Track Log - Related Links

Times and Time Zones

All times are in EDT time to prevent confusion due to time zone crossing. See the N1881Q flight status page for this flight to view local times or setup timezone preferences in your user account.

Time Position Orientation Groundspeed Altitude Reporting Facility
EDT Latitude Longitude Course Direction KTS MPH feet Rate Location/Type
Sun 10:41:03 AM 27.3833 -82.5500 146° Southeast 175 201 700  Level Tampa TRACON
Sun 10:42:21 AM 27.3167 -82.5000 146° Southeast 257 296 3,600 2,455 Climbing Tampa TRACON
Sun 10:43:15 AM 27.2833 -82.5500 233° Southwest 276 318 6,100 2,578 Climbing Tampa TRACON
Sun 10:44:29 AM 27.2800 -82.6606 268° West 222 255 9,100 2,687 Climbing Miami Center
Sun 10:45:29 AM 27.3492 -82.7061 330° Northwest 234 269 12,100 12,950 Climbing Miami Center
Sun 10:46:29 AM 27.4356 -82.7361 343° North 251 289 35,000 1,850 Climbing Miami Center
Sun 10:47:29 AM 27.5242 -82.7664 343° North 292 336 15,800 -8,600 Descending Miami Center
Sun 10:48:29 AM 27.6186 -82.8042 340° North 328 377 17,800 1,634 Climbing Miami Center
Sun 10:50:40 AM 27.8264 -82.8808 342° North 352 405 21,000 1,759 Climbing Jacksonville Center
Sun 10:51:40 AM 27.9289 -82.8925 354° North 365 420 23,400 1,765 Climbing Jacksonville Center
Sun 10:52:39 AM 28.0289 -82.8783 North 356 410 24,500 908 Climbing Jacksonville Center
Sun 10:53:39 AM 28.1333 -82.8619 North 367 422 25,200 1,289 Climbing Jacksonville Center
Sun 10:54:40 AM 28.2417 -82.8503 North 374 430 27,100 1,550 Climbing Jacksonville Center
Sun 10:55:39 AM 28.3461 -82.8336 North 374 430 28,300 1,100 Climbing Jacksonville Center
Sun 10:56:40 AM 28.4525 -82.8217 North 380 437 29,300 1,091 Climbing Jacksonville Center
Sun 10:57:40 AM 28.5611 -82.8100 North 385 443 30,500 850 Climbing Jacksonville Center
Sun 10:58:40 AM 28.6717 -82.7933 North 390 449 31,000 850 Climbing Jacksonville Center
Sun 10:59:40 AM 28.7822 -82.7764 North 390 449 32,200 1,210 Climbing Jacksonville Center
Sun 11:00:39 AM 28.8908 -82.7644 North 390 449 33,400 850 Climbing Jacksonville Center
Sun 11:01:40 AM 28.9992 -82.7503 North 390 449 33,900 350 Climbing Jacksonville Center
Sun 11:02:39 AM 29.1142 -82.7358 North 396 456 34,100 50 Climbing Jacksonville Center
Sun 11:03:39 AM 29.2350 -82.7189 North 416 479 34,000 -50 Descending Jacksonville Center
Sun 11:04:39 AM 29.3603 -82.6994 North 433 498 34,000 200 Level Jacksonville Center
Sun 11:05:39 AM 29.4856 -82.6850 North 444 511 34,400 500 Climbing Jacksonville Center
Sun 11:06:39 AM 29.6108 -82.6728 North 449 517 35,000 300 Climbing Jacksonville Center
Sun 11:07:39 AM 29.7361 -82.6581 North 449 517 35,000  Level Jacksonville Center
Sun 11:08:39 AM 29.8592 -82.6364 North 444 511 35,000  Level Jacksonville Center
Sun 11:09:40 AM 29.9886 -82.6192 North 449 517 35,000  Level Jacksonville Center
Sun 11:10:40 AM 30.1158 -82.6069 North 454 522 35,000  Level Jacksonville Center
Sun 11:11:39 AM 30.2475 -82.5897 North 459 528 35,000  Level Jacksonville Center
Sun 11:12:40 AM 30.3600 -82.5747 North 464 534 35,000  Level Jacksonville Center
Sun 11:13:39 AM 30.4894 -82.5550 North 464 534 35,000  Level Jacksonville Center
Sun 11:14:39 AM 30.6125 -82.5111 17° North 459 528 35,000  Level Jacksonville Center
Sun 11:15:40 AM 30.7356 -82.4575 21° North 459 528 35,000  Level Jacksonville Center
Sun 11:16:40 AM 30.8586 -82.4036 21° North 464 534 35,000  Level Jacksonville Center
Sun 11:17:40 AM 30.9836 -82.3594 17° North 464 534 35,000  Level Jacksonville Center
Sun 11:18:40 AM 31.1111 -82.3733 355° North 458 527 35,000 350 Level Jacksonville Center
Sun 11:19:40 AM 31.2386 -82.4089 347° North 458 527 35,700 908 Climbing Jacksonville Center
Sun 11:20:39 AM 31.3744 -82.4375 350° North 458 527 36,800 655 Climbing Jacksonville Center
Sun 11:21:39 AM 31.4936 -82.4539 353° North 451 519 37,000 100 Climbing Jacksonville Center
Sun 11:22:39 AM 31.6144 -82.4119 16° North 436 502 37,000  Level Jacksonville Center
Sun 11:23:40 AM 31.7289 -82.3431 27° Northeast 431 496 37,000  Level Jacksonville Center
Sun 11:24:40 AM 31.8436 -82.2786 26° Northeast 451 519 37,000  Level Jacksonville Center
Sun 11:25:39 AM 31.9475 -82.2144 28° Northeast 458 527 37,000  Level Jacksonville Center
Sun 11:26:39 AM 32.0744 -82.1397 27° Northeast 458 527 37,000  Level Jacksonville Center
Sun 11:27:40 AM 32.1911 -82.0728 26° Northeast 463 533 37,000  Level Jacksonville Center
Sun 11:28:39 AM 32.2969 -82.0103 27° Northeast 463 533 37,000  Level Jacksonville Center
Sun 11:29:40 AM 32.4258 -81.9328 27° Northeast 463 533 37,000  Level Jacksonville Center
Sun 11:30:40 AM 32.5297 -81.8700 27° Northeast 463 533 37,000  Level Jacksonville Center
Sun 11:31:40 AM 32.6567 -81.7919 27° Northeast 463 533 37,000  Level Jacksonville Center
Sun 11:32:40 AM 32.7625 -81.7242 28° Northeast 468 539 37,000  Level Jacksonville Center
Sun 11:33:40 AM 32.8997 -81.6803 15° North 463 533 37,000  Level Jacksonville Center
Sun 11:34:40 AM 33.0311 -81.6661 North 463 533 37,000  Level Jacksonville Center
Sun 11:35:39 AM 33.1625 -81.6544 North 463 533 37,000  Level Jacksonville Center
Sun 11:36:40 AM 33.2792 -81.6353 North 463 533 37,000  Level Jacksonville Center
Sun 11:37:40 AM 33.4106 -81.6111 North 463 533 37,000  Level Jacksonville Center
Sun 11:38:39 AM 33.5331 -81.5544 21° North 457 526 37,000  Level Jacksonville Center
Sun 11:39:40 AM 33.6489 -81.4706 31° Northeast 468 539 37,000  Level Jacksonville Center
Sun 11:40:39 AM 33.7606 -81.3911 31° Northeast 468 539 37,000  Level Jacksonville Center
Sun 11:42:57 AM 34.0286 -81.2039 30° Northeast 486 559 37,000  Level Atlanta Center
Sun 11:43:57 AM 34.1417 -81.1225 31° Northeast 475 547 37,000  Level Atlanta Center
Sun 11:44:57 AM 34.2564 -81.0431 30° Northeast 475 547 37,000  Level Atlanta Center
Sun 11:45:57 AM 34.3836 -80.9506 31° Northeast 475 547 37,000  Level Atlanta Center
Sun 11:46:57 AM 34.4964 -80.8731 30° Northeast 477 549 37,000  Level Atlanta Center
Sun 11:47:57 AM 34.6131 -80.7831 32° Northeast 482 555 37,000  Level Atlanta Center
Sun 11:48:57 AM 34.7258 -80.7053 30° Northeast 475 547 37,000  Level Atlanta Center
Sun 11:50:48 AM 34.9411 -80.5478 31° Northeast 504 580 37,000  Level Washington Center
Sun 11:51:48 AM 35.0594 -80.4636 30° Northeast 498 573 37,000  Level Washington Center
Sun 11:52:48 AM 35.1714 -80.3764 32° Northeast 485 558 37,000  Level Washington Center
Sun 11:53:49 AM 35.2894 -80.2919 30° Northeast 492 566 37,000  Level Washington Center
Sun 11:54:49 AM 35.3819 -80.2233 31° Northeast 492 566 37,000  Level Washington Center
Sun 11:55:49 AM 35.5214 -80.1219 31° Northeast 487 560 37,000  Level Washington Center
Sun 11:56:50 AM 35.6394 -80.0367 30° Northeast 487 560 37,000  Level Washington Center
Sun 11:57:48 AM 35.7553 -79.9533 30° Northeast 487 560 37,000  Level Washington Center
Sun 11:58:49 AM 35.8711 -79.8675 31° Northeast 487 560 37,000  Level Washington Center
Sun 11:59:49 AM 35.9869 -79.7789 32° Northeast 487 560 37,000  Level Washington Center
Sun 12:00:50 PM 36.1047 -79.6925 31° Northeast 487 560 37,000  Level Washington Center
Sun 12:01:50 PM 36.2203 -79.6058 31° Northeast 487 560 37,000  Level Washington Center
Sun 12:02:48 PM 36.3378 -79.5192 31° Northeast 487 560 37,000  Level Washington Center
Sun 12:03:49 PM 36.4514 -79.4267 33° Northeast 487 560 37,000  Level Washington Center
Sun 12:04:50 PM 36.5669 -79.3392 31° Northeast 487 560 37,000  Level Washington Center
Sun 12:05:48 PM 36.6739 -79.2564 32° Northeast 492 566 37,000  Level Washington Center
Sun 12:06:49 PM 36.7869 -79.1708 31° Northeast 487 560 37,000  Level Washington Center
Sun 12:07:50 PM 36.9044 -79.0803 32° Northeast 487 560 37,000  Level Washington Center
Sun 12:08:48 PM 37.0303 -78.9844 31° Northeast 487 560 37,000  Level Washington Center
Sun 12:09:48 PM 37.1453 -78.8931 32° Northeast 487 560 37,000  Level Washington Center
Sun 12:10:49 PM 37.2603 -78.8067 31° Northeast 487 560 37,000  Level Washington Center
Sun 12:11:47 PM 37.3647 -78.7250 32° Northeast 487 560 37,000  Level Washington Center
Sun 12:12:48 PM 37.4797 -78.6381 31° Northeast 487 560 37,000  Level Washington Center
Sun 12:13:49 PM 37.5947 -78.5458 32° Northeast 487 560 37,000  Level Washington Center
Sun 12:14:49 PM 37.7242 -78.4536 29° Northeast 487 560 37,000  Level Washington Center
Sun 12:15:48 PM 37.8506 -78.4006 18° North 475 547 37,000  Level Washington Center
Sun 12:16:48 PM 37.9747 -78.3444 20° North 475 547 37,000  Level Washington Center
Sun 12:17:49 PM 38.0833 -78.2536 33° Northeast 464 534 37,000  Level Washington Center
Sun 12:18:50 PM 38.1919 -78.1517 36° Northeast 470 541 37,000  Level Washington Center
Sun 12:19:48 PM 38.3003 -78.0497 36° Northeast 475 547 37,000  Level Washington Center
Sun 12:20:49 PM 38.4086 -77.9500 36° Northeast 480 552 37,000  Level Washington Center
Sun 12:21:50 PM 38.5147 -77.8525 36° Northeast 480 552 37,000  Level Washington Center
Sun 12:22:50 PM 38.6250 -77.7522 35° Northeast 480 552 37,000  Level Washington Center
Sun 12:23:48 PM 38.7333 -77.6489 37° Northeast 485 558 37,000  Level Washington Center
Sun 12:24:49 PM 38.8453 -77.5481 35° Northeast 490 564 37,000  Level Washington Center
Sun 12:25:47 PM 38.9550 -77.4708 29° Northeast 500 575 37,000  Level Washington Center
Sun 12:26:48 PM 39.0886 -77.4636 North 468 539 37,000  Level Washington Center
Sun 12:28:40 PM 39.3567 -77.4600 North 494 568 37,000  Level New York Center
Sun 12:29:41 PM 39.4942 -77.4622 359° North 494 568 37,000  Level New York Center
Sun 12:30:41 PM 39.6319 -77.4592 North 494 568 37,000  Level New York Center
Sun 12:31:41 PM 39.7700 -77.4533 North 499 574 37,000  Level New York Center
Sun 12:32:39 PM 39.9053 -77.4203 11° North 499 574 37,000  Level New York Center
Sun 12:33:39 PM 40.0317 -77.3592 20° North 489 563 37,000  Level New York Center
Sun 12:34:40 PM 40.1475 -77.2994 22° Northeast 489 563 37,000 -397 Level New York Center
Sun 12:35:40 PM 40.2778 -77.2464 17° North 489 563 36,200 -1,289 Descending New York Center
Sun 12:36:41 PM 40.4133 -77.2072 12° North 484 557 34,400 -1,587 Descending New York Center
Sun 12:37:41 PM 40.5472 -77.1597 15° North 489 563 33,000 -1,400 Descending New York Center
Sun 12:38:41 PM 40.6808 -77.1147 14° North 494 568 31,600 -1,017 Descending New York Center
Sun 12:39:39 PM 40.8147 -77.0667 15° North 494 568 31,000 -712 Descending New York Center
Sun 12:40:39 PM 40.9444 -77.0208 15° North 489 563 30,200 -1,835 Descending New York Center
Sun 12:41:40 PM 41.0778 -76.9781 14° North 489 563 27,300 -2,926 Descending New York Center
Sun 12:42:40 PM 41.2078 -76.9239 17° North 484 557 24,300 -2,800 Descending New York Center
Sun 12:43:40 PM 41.3414 -76.8808 14° North 471 542 21,700 -2,380 Descending New York Center
Sun 12:44:41 PM 41.4600 -76.8389 15° North 451 519 19,500 -2,182 Descending New York Center
Sun 12:45:41 PM 41.5706 -76.7992 15° North 431 496 17,300 -1,322 Descending New York Center
Sun 12:46:39 PM 41.6772 -76.7475 20° North 417 480 16,900 -610 Descending New York Center
Sun 12:47:39 PM 41.7706 -76.6697 32° Northeast 396 456 16,100 -1,190 Descending New York Center
Sun 12:48:40 PM 41.8756 -76.6094 23° Northeast 401 461 14,500 -1,835 Descending New York Center
Sun 12:49:40 PM 41.9850 -76.5856 North 401 461 12,400 -2,083 Descending New York Center
Sun 12:50:41 PM 42.0778 -76.5631 10° North 367 422 10,300 -2,350 Descending New York Center
Sun 12:51:40 PM 42.1642 -76.5425 10° North 342 394 7,700 -2,218 Descending New York Center
Sun 12:52:40 PM 42.2461 -76.5244 North 312 359 5,900 -1,785 Descending New York Center
Sun 12:53:41 PM 42.3197 -76.5086 North 297 342 4,100 -1,190 Descending New York Center
Sun 12:54:41 PM 42.3894 -76.4922 10° North 279 321 3,500 -763 Descending New York Center
Sun 12:55:39 PM 42.4308 -76.4536 35° Northeast 216 249 2,600 -661 Descending New York Center
Sun 12:56:39 PM 42.4775 -76.4353 16° North 191 220 2,200 7,140 Descending New York Center
Sun 12:57:40 PM 42.5264 -76.4114 20° North 191 220 17,000 7,279 Climbing New York Center
Sun 12:58:41 PM 42.5733 -76.3872 21° North 191 220 17,000  Level New York Center
Sun 12:59:42 PM 42.6222 -76.3633 20° North 191 220 17,000  Level New York Center
Sun 01:00:40 PM 42.6308 -76.3583 23° Northeast 191 220 17,000  Level New York Center
Sun 01:02:00 PM 42.4833 -76.4500 211° Southwest  Level FlightAware Approximate
Sun 01:09:00 PM 42.4914 -76.4587 211° Southwest  Level Estimated
Sun 01:10:00 PM 42.4914 -76.4587 211° Southwest  Level Estimated
Sun 01:11:00 PM 42.4914 -76.4587 211° Southwest  Level Estimated
Sun 01:12:00 PM 42.4914 -76.4587 211° Southwest  Level Estimated
Sun 01:13:00 PM 42.4914 -76.4587 211° Southwest  Level Estimated
Sun 01:14:00 PM 42.4914 -76.4587 211° Southwest  Level Estimated
Sun 01:15:00 PM 42.4914 -76.4587 211° Southwest  Level Estimated
Sun 01:16:00 PM 42.4914 -76.4587 211° Southwest  Level Estimated

Login

Don't have an account? Register now (free) for customized features, flight alerts, and more!